createdAt,value
2019-06-07T00:00:25.693Z,78.76
2019-06-07T00:02:48.788Z,78.57
2019-06-07T00:05:42.499Z,78.90
2019-06-07T00:11:32.621Z,78.99
2019-06-07T00:14:51.063Z,78.71
2019-06-07T00:17:18.174Z,79.03
2019-06-07T00:19:59.293Z,80.22
2019-06-07T00:22:47.575Z,82.21
2019-06-07T00:25:33.580Z,80.57
2019-06-07T00:28:32.041Z,81.68
2019-06-07T00:31:36.034Z,82.23
2019-06-07T00:34:51.595Z,82.56
2019-06-07T00:38:01.285Z,81.92
2019-06-07T00:40:42.449Z,81.55
2019-06-07T00:44:23.364Z,81.96
2019-06-07T00:47:32.337Z,80.86
2019-06-07T00:57:55.782Z,80.85
2019-06-07T01:03:48.923Z,80.04
2019-06-07T01:06:30.177Z,80.32
2019-06-07T01:09:36.264Z,80.72
2019-06-07T01:12:27.254Z,79.11
2019-06-07T01:15:07.190Z,79.22
2019-06-07T01:18:33.124Z,80.01
2019-06-07T01:20:38.312Z,79.55
2019-06-07T01:24:03.217Z,79.49
2019-06-07T01:26:35.353Z,79.37
2019-06-07T01:29:12.510Z,78.79
2019-06-07T01:31:45.962Z,77.83
2019-06-07T01:34:35.343Z,78.45
2019-06-07T01:37:22.555Z,78.16
2019-06-07T01:40:09.611Z,79.13
2019-06-07T01:43:04.374Z,79.71
2019-06-07T01:45:44.974Z,80.57
2019-06-07T01:48:25.379Z,80.77
2019-06-07T01:51:18.919Z,80.80
2019-06-07T01:54:41.569Z,81.54
2019-06-07T01:56:43.272Z,81.97
2019-06-07T01:59:34.094Z,83.21
2019-06-07T02:02:12.024Z,83.44
2019-06-07T02:04:52.399Z,83.62
2019-06-07T02:10:58.385Z,84.23
2019-06-07T02:13:38.559Z,84.40
2019-06-07T02:16:21.888Z,84.93
2019-06-07T02:19:27.451Z,85.05
2019-06-07T02:25:27.390Z,85.98
2019-06-07T02:27:27.545Z,86.04
2019-06-07T02:33:24.434Z,85.65
2019-06-07T02:35:41.197Z,86.23
2019-06-07T02:38:37.040Z,86.51
2019-06-07T02:41:27.755Z,86.27
2019-06-07T02:44:06.137Z,85.68
2019-06-07T02:47:16.359Z,86.50
2019-06-07T02:49:44.468Z,86.07
2019-06-07T02:52:39.866Z,86.30
2019-06-07T02:55:29.674Z,87.27
2019-06-07T02:58:07.882Z,87.55
2019-06-07T03:01:10.129Z,87.43
2019-06-07T03:04:02.446Z,86.82
2019-06-07T03:07:01.048Z,86.36
2019-06-07T03:09:46.368Z,86.37
2019-06-07T03:12:35.556Z,87.03
2019-06-07T03:15:37.421Z,86.23
2019-06-07T03:18:16.240Z,87.72
2019-06-07T03:21:04.892Z,87.65
2019-06-07T03:23:31.991Z,88.07
2019-06-07T03:26:10.405Z,88.29
2019-06-07T03:28:44.571Z,88.54
2019-06-07T03:31:18.882Z,89.04
2019-06-07T03:33:52.191Z,89.46
2019-06-07T03:36:26.000Z,90.27
2019-06-07T03:39:02.935Z,89.02
2019-06-07T03:41:49.846Z,89.40
2019-06-07T03:44:11.856Z,89.02
2019-06-07T03:46:46.381Z,88.44
2019-06-07T03:49:18.982Z,88.81
2019-06-07T03:51:53.466Z,89.52
2019-06-07T03:54:31.998Z,89.72
2019-06-07T03:57:08.864Z,88.40
2019-06-07T03:59:41.574Z,88.29
2019-06-07T04:02:12.647Z,89.84
2019-06-07T04:04:48.747Z,88.42
2019-06-07T04:07:25.534Z,88.90
2019-06-07T04:10:02.031Z,89.12
2019-06-07T04:12:43.970Z,88.92
2019-06-07T04:15:14.296Z,88.35
2019-06-07T04:18:00.825Z,89.31
2019-06-07T04:20:24.363Z,89.22
2019-06-07T04:22:56.643Z,89.54
2019-06-07T04:25:29.004Z,88.90
2019-06-07T04:28:01.418Z,90.17
2019-06-07T04:30:48.896Z,89.77
2019-06-07T04:33:26.208Z,89.53
2019-06-07T04:35:59.758Z,88.48
2019-06-07T04:38:36.449Z,89.41
2019-06-07T04:41:06.187Z,88.04
2019-06-07T04:43:40.966Z,89.15
2019-06-07T04:46:18.602Z,88.29
2019-06-07T04:48:51.514Z,88.66
2019-06-07T04:51:26.907Z,86.59
2019-06-07T04:53:59.054Z,88.29
2019-06-07T04:56:30.717Z,88.38
2019-06-07T04:59:04.560Z,87.83
2019-06-07T05:01:41.449Z,87.90
2019-06-07T05:04:12.432Z,87.66
2019-06-07T05:06:47.552Z,87.22
2019-06-07T05:09:22.563Z,87.44
2019-06-07T05:11:55.320Z,86.46
2019-06-07T05:14:31.116Z,87.11
2019-06-07T05:17:08.079Z,86.67
2019-06-07T05:19:45.034Z,86.49
2019-06-07T05:22:16.183Z,86.77
2019-06-07T05:24:47.200Z,86.67
2019-06-07T05:27:20.324Z,86.09
2019-06-07T05:30:09.662Z,86.23
2019-06-07T05:32:37.613Z,85.57
2019-06-07T05:35:12.694Z,85.69
2019-06-07T05:37:45.952Z,85.53
2019-06-07T05:40:34.330Z,85.56
2019-06-07T05:43:09.510Z,85.94
2019-06-07T05:45:47.234Z,85.18
2019-06-07T05:48:23.094Z,84.89
2019-06-07T05:50:57.290Z,84.81
2019-06-07T05:53:28.424Z,84.55
2019-06-07T05:56:00.549Z,84.30
2019-06-07T05:58:32.719Z,84.24
2019-06-07T06:01:41.476Z,83.81
2019-06-07T06:03:44.066Z,83.21
2019-06-07T06:06:13.852Z,82.72
2019-06-07T06:08:49.470Z,81.33
2019-06-07T06:11:41.053Z,81.85
2019-06-07T06:14:06.533Z,81.35
2019-06-07T06:16:27.625Z,80.16
2019-06-07T06:18:57.904Z,79.67
2019-06-07T06:21:28.068Z,79.71
2019-06-07T06:23:58.253Z,78.85
2019-06-07T06:26:29.773Z,78.53
2019-06-07T06:29:00.001Z,78.86
2019-06-07T06:31:31.151Z,78.95
2019-06-07T06:34:02.029Z,78.71
2019-06-07T06:36:32.147Z,78.16
2019-06-07T06:39:02.314Z,78.14
2019-06-07T06:41:46.268Z,77.63
2019-06-07T06:44:05.697Z,77.34
2019-06-07T06:46:41.059Z,77.46
2019-06-07T06:49:08.803Z,77.11
2019-06-07T06:51:39.258Z,76.98
2019-06-07T06:54:10.258Z,76.92
2019-06-07T06:56:43.969Z,76.12
2019-06-07T06:59:37.329Z,75.49
2019-06-07T07:01:45.159Z,74.96
2019-06-07T07:04:16.925Z,74.78
2019-06-07T07:06:48.048Z,74.15
2019-06-07T07:09:18.445Z,73.76
2019-06-07T07:12:01.044Z,73.29
2019-06-07T07:14:20.607Z,72.59
2019-06-07T07:16:54.461Z,73.76
2019-06-07T07:19:22.793Z,74.17
2019-06-07T07:21:55.225Z,73.02
2019-06-07T07:24:25.111Z,72.20
2019-06-07T07:26:58.337Z,71.43
2019-06-07T07:29:27.127Z,71.48
2019-06-07T07:31:57.251Z,70.74
2019-06-07T07:34:35.300Z,71.26
2019-06-07T07:37:00.025Z,70.48
2019-06-07T07:39:30.254Z,71.22
2019-06-07T07:42:20.020Z,70.59
2019-06-07T07:44:32.255Z,71.58
2019-06-07T07:47:02.507Z,71.03
2019-06-07T07:49:32.653Z,71.51
2019-06-07T07:52:02.902Z,72.06
2019-06-07T07:54:33.064Z,71.29
2019-06-07T07:57:03.230Z,70.01
2019-06-07T07:59:44.136Z,69.17
2019-06-07T08:02:05.512Z,68.94
2019-06-07T08:05:12.774Z,69.37
2019-06-07T08:07:07.419Z,69.60
2019-06-07T08:09:37.601Z,70.05
2019-06-07T08:12:07.772Z,70.38
2019-06-07T08:14:37.928Z,70.47
2019-06-07T08:17:08.082Z,70.10
2019-06-07T08:19:38.285Z,70.09
2019-06-07T08:22:08.550Z,70.20
2019-06-07T08:24:41.005Z,70.08
2019-06-07T08:27:25.848Z,69.87
2019-06-07T08:30:00.898Z,70.02
2019-06-07T08:32:17.140Z,68.86
2019-06-07T08:34:51.825Z,69.56
2019-06-07T08:37:19.213Z,69.83
2019-06-07T08:39:52.806Z,69.03
2019-06-07T08:42:36.460Z,69.44
2019-06-07T08:45:01.569Z,69.18
2019-06-07T08:47:26.337Z,69.44
2019-06-07T08:50:01.487Z,70.44
2019-06-07T08:52:28.511Z,70.45
2019-06-07T08:55:03.329Z,70.10
2019-06-07T08:57:31.683Z,69.59
2019-06-07T09:00:15.960Z,70.02
2019-06-07T09:02:36.559Z,69.70
2019-06-07T09:05:12.559Z,69.03
2019-06-07T09:07:40.081Z,68.06
2019-06-07T09:10:14.422Z,67.87
2019-06-07T09:12:43.539Z,66.07
2019-06-07T09:15:22.787Z,66.43
2019-06-07T09:18:30.152Z,66.63
2019-06-07T09:20:35.579Z,66.10
2019-06-07T09:22:51.734Z,66.54
2019-06-07T09:25:22.071Z,64.87
2019-06-07T09:27:52.408Z,65.45
2019-06-07T09:30:38.998Z,65.15
2019-06-07T09:33:09.766Z,65.54
2019-06-07T09:35:40.578Z,63.36
2019-06-07T09:38:24.191Z,63.51
2019-06-07T09:40:42.850Z,62.49
2019-06-07T09:45:44.873Z,60.53
2019-06-07T09:49:01.425Z,61.77
2019-06-07T09:50:48.345Z,63.71
2019-06-07T09:53:22.416Z,62.08
2019-06-07T09:55:50.330Z,61.83
2019-06-07T10:00:52.328Z,62.27
2019-06-07T10:03:25.647Z,61.33
2019-06-07T10:06:00.372Z,61.27
2019-06-07T10:11:02.644Z,61.95
2019-06-07T10:13:32.762Z,62.53
2019-06-07T10:16:02.934Z,63.16
2019-06-07T10:18:34.138Z,63.89
2019-06-07T10:21:05.673Z,62.50
2019-06-07T10:23:36.106Z,62.16
2019-06-07T10:26:06.313Z,62.63
2019-06-07T10:28:36.609Z,63.30
2019-06-07T10:31:08.868Z,63.95
2019-06-07T10:33:40.423Z,63.33
2019-06-07T10:36:10.793Z,62.88
2019-06-07T10:38:40.917Z,63.38
2019-06-07T10:41:12.095Z,62.69
2019-06-07T10:43:42.237Z,63.25
2019-06-07T10:46:12.571Z,63.22
2019-06-07T10:48:42.851Z,63.25
2019-06-07T10:51:14.719Z,62.89
2019-06-07T10:53:44.879Z,62.16
2019-06-07T10:56:15.086Z,60.46
2019-06-07T10:58:45.325Z,61.12
2019-06-07T11:01:15.569Z,60.45
2019-06-07T11:03:45.959Z,59.44
2019-06-07T11:06:16.203Z,59.08
2019-06-07T11:08:46.436Z,57.21
2019-06-07T11:11:19.570Z,57.93
2019-06-07T11:13:52.468Z,57.35
2019-06-07T11:16:24.856Z,56.22
2019-06-07T11:18:56.902Z,54.60
2019-06-07T11:21:27.057Z,55.11
2019-06-07T11:23:57.392Z,54.41
2019-06-07T11:26:27.532Z,55.52
2019-06-07T11:28:57.727Z,55.43
2019-06-07T11:31:29.413Z,54.91
2019-06-07T11:33:59.555Z,53.97
2019-06-07T11:36:29.776Z,53.83
2019-06-07T11:38:59.975Z,53.16
2019-06-07T11:41:30.125Z,54.02
2019-06-07T11:44:00.272Z,53.53
2019-06-07T11:46:30.458Z,53.60
2019-06-07T11:49:00.711Z,53.07
2019-06-07T11:51:30.870Z,50.30
2019-06-07T11:54:01.402Z,52.79
2019-06-07T11:56:31.518Z,52.31
2019-06-07T11:59:01.696Z,53.25
2019-06-07T12:01:31.837Z,52.59
2019-06-07T12:04:01.965Z,51.45
2019-06-07T12:06:32.026Z,52.19
2019-06-07T12:09:02.203Z,51.94
2019-06-07T12:11:33.965Z,53.57
2019-06-07T12:14:04.429Z,53.27
2019-06-07T12:16:34.590Z,52.62
2019-06-07T12:19:04.799Z,52.91
2019-06-07T12:21:34.921Z,53.78
2019-06-07T12:24:05.297Z,52.82
2019-06-07T12:26:35.500Z,52.87
2019-06-07T12:29:07.418Z,53.35
2019-06-07T12:31:37.636Z,52.75
2019-06-07T12:34:07.770Z,52.29
2019-06-07T12:36:37.980Z,52.28
2019-06-07T12:39:08.757Z,51.98
2019-06-07T12:41:38.956Z,52.93
2019-06-07T12:44:09.119Z,53.71
2019-06-07T12:46:42.070Z,52.91
2019-06-07T12:49:12.969Z,51.65
2019-06-07T12:51:45.110Z,51.33
2019-06-07T12:54:15.507Z,52.05
2019-06-07T12:56:45.640Z,50.88
2019-06-07T12:59:17.962Z,49.86
2019-06-07T13:01:50.021Z,50.47
2019-06-07T13:04:22.584Z,50.97
2019-06-07T13:06:53.715Z,52.10
2019-06-07T13:09:24.051Z,49.61
2019-06-07T13:11:54.391Z,49.18
2019-06-07T13:14:26.489Z,48.53
2019-06-07T13:16:56.701Z,50.31
2019-06-07T13:19:26.802Z,50.09
2019-06-07T13:21:56.992Z,50.70
2019-06-07T13:24:29.465Z,50.60
2019-06-07T13:26:59.793Z,50.70
2019-06-07T13:29:32.159Z,52.57
2019-06-07T13:32:01.681Z,52.33
2019-06-07T13:34:31.788Z,52.31
2019-06-07T13:37:01.981Z,51.61
2019-06-07T13:39:32.189Z,51.85
2019-06-07T13:42:02.414Z,50.68
2019-06-07T13:44:41.916Z,51.55
2019-06-07T13:47:12.079Z,52.73
2019-06-07T13:49:45.364Z,53.80
2019-06-07T13:52:16.340Z,51.45
2019-06-07T13:54:46.554Z,52.74
2019-06-07T13:57:17.926Z,52.55
2019-06-07T13:59:48.138Z,53.41
2019-06-07T14:02:18.573Z,52.44
2019-06-07T14:04:48.711Z,51.70
2019-06-07T14:07:21.245Z,51.76
2019-06-07T14:09:53.216Z,51.97
2019-06-07T14:12:29.594Z,52.67
2019-06-07T14:15:01.377Z,52.80
2019-06-07T14:17:34.438Z,52.99
2019-06-07T14:20:10.940Z,53.27
2019-06-07T14:22:42.275Z,53.18
2019-06-07T14:25:16.725Z,53.54
2019-06-07T14:27:48.169Z,54.66
2019-06-07T14:30:21.808Z,55.04
2019-06-07T14:32:55.517Z,55.53
2019-06-07T14:35:39.779Z,54.93
2019-06-07T14:38:11.027Z,55.48
2019-06-07T14:40:41.230Z,55.45
2019-06-07T14:43:11.611Z,56.62
2019-06-07T14:45:43.743Z,57.13
2019-06-07T14:48:14.578Z,58.13
2019-06-07T14:50:55.901Z,58.39
2019-06-07T14:53:28.705Z,58.87
2019-06-07T14:56:01.696Z,58.37
2019-06-07T14:59:08.500Z,58.89
2019-06-07T15:02:00.778Z,58.77
2019-06-07T15:04:30.907Z,59.19
2019-06-07T15:07:01.189Z,60.20
2019-06-07T15:09:35.284Z,61.69
2019-06-07T15:12:23.926Z,62.11
2019-06-07T15:14:42.780Z,63.84
2019-06-07T15:17:15.919Z,65.16
2019-06-07T15:19:53.485Z,66.30
2019-06-07T15:22:24.404Z,66.30
2019-06-07T15:24:56.066Z,66.49
2019-06-07T15:27:27.237Z,66.95
2019-06-07T15:29:57.836Z,67.25
2019-06-07T15:32:28.366Z,68.80
2019-06-07T15:34:58.663Z,73.39
2019-06-07T15:37:28.865Z,75.08
2019-06-07T15:39:59.098Z,77.06
2019-06-07T15:42:42.665Z,77.93
2019-06-07T15:45:01.082Z,79.77
2019-06-07T15:47:31.737Z,79.54
2019-06-07T15:50:01.971Z,78.79
2019-06-07T15:52:33.355Z,81.97
2019-06-07T15:55:03.621Z,84.09
2019-06-07T15:57:37.301Z,85.11
2019-06-07T16:00:09.053Z,86.00
2019-06-07T16:02:46.775Z,85.82
2019-06-07T16:05:21.238Z,87.67
2019-06-07T16:07:54.472Z,87.16
2019-06-07T16:10:24.593Z,88.25
2019-06-07T16:13:00.453Z,88.31
2019-06-07T16:15:27.633Z,87.19
2019-06-07T16:17:57.814Z,86.75
2019-06-07T16:20:27.959Z,89.62
2019-06-07T16:22:58.210Z,88.23
2019-06-07T16:25:28.314Z,91.11
2019-06-07T16:27:59.128Z,91.49
2019-06-07T16:30:29.291Z,91.65
2019-06-07T16:32:59.421Z,92.04
2019-06-07T16:35:29.472Z,92.78
2019-06-07T16:37:59.606Z,92.45
2019-06-07T16:40:29.748Z,93.35
2019-06-07T16:43:16.229Z,91.92
2019-06-07T16:45:32.557Z,91.30
2019-06-07T16:48:02.641Z,92.19
2019-06-07T16:50:32.777Z,91.79
2019-06-07T16:53:03.803Z,92.23
2019-06-07T16:55:33.939Z,93.24
2019-06-07T16:58:04.473Z,93.16
2019-06-07T17:00:34.954Z,92.55
2019-06-07T17:03:09.665Z,93.12
2019-06-07T17:05:42.854Z,92.89
2019-06-07T17:08:11.667Z,93.30
2019-06-07T17:10:42.519Z,93.34
2019-06-07T17:13:13.075Z,92.89
2019-06-07T17:15:45.104Z,94.48
2019-06-07T17:18:15.872Z,94.24
2019-06-07T17:20:47.398Z,93.03
2019-06-07T17:23:23.088Z,94.21
2019-06-07T17:25:53.337Z,93.29
2019-06-07T17:28:23.619Z,93.96
2019-06-07T17:30:53.869Z,94.19
2019-06-07T17:33:23.978Z,94.81
2019-06-07T17:35:54.201Z,93.72
2019-06-07T17:38:24.398Z,94.55
2019-06-07T17:40:54.642Z,92.14
2019-06-07T17:43:26.177Z,93.23
2019-06-07T17:45:56.711Z,93.74
2019-06-07T17:48:26.898Z,94.17
2019-06-07T17:50:57.177Z,94.37
2019-06-07T17:53:30.628Z,93.92
2019-06-07T17:56:01.899Z,92.77
2019-06-07T17:58:33.578Z,90.84
2019-06-07T18:01:03.802Z,90.00
2019-06-07T18:03:34.143Z,89.29
2019-06-07T18:06:10.203Z,89.76
2019-06-07T18:08:47.617Z,89.91
2019-06-07T18:11:18.027Z,90.52
2019-06-07T18:13:48.328Z,90.71
2019-06-07T18:16:19.693Z,90.72
2019-06-07T18:18:50.662Z,90.96
2019-06-07T18:21:22.132Z,92.25
2019-06-07T18:23:52.992Z,92.55
2019-06-07T18:26:24.895Z,92.18
2019-06-07T18:28:56.634Z,93.57
2019-06-07T18:31:36.439Z,92.40
2019-06-07T18:34:05.270Z,92.53
2019-06-07T18:36:40.400Z,92.39
2019-06-07T18:39:24.111Z,92.61
2019-06-07T18:42:01.499Z,91.82
2019-06-07T18:44:37.081Z,92.75
2019-06-07T18:47:13.809Z,92.44
2019-06-07T18:49:47.408Z,92.25
2019-06-07T18:52:27.310Z,91.90
2019-06-07T18:55:05.473Z,91.76
2019-06-07T18:57:41.751Z,91.39
2019-06-07T19:00:17.754Z,91.69
2019-06-07T19:03:00.125Z,91.95
2019-06-07T19:06:02.492Z,92.40
2019-06-07T19:08:34.914Z,92.37
2019-06-07T19:11:34.344Z,92.72
2019-06-07T19:14:37.588Z,92.27
2019-06-07T19:17:18.975Z,92.27
2019-06-07T19:19:56.312Z,92.55
2019-06-07T19:22:39.501Z,93.26
2019-06-07T19:25:22.704Z,92.46
2019-06-07T19:27:55.197Z,91.87
2019-06-07T19:30:31.468Z,91.34
2019-06-07T19:33:05.866Z,90.75
2019-06-07T19:35:40.779Z,90.89
2019-06-07T19:38:23.033Z,90.36
2019-06-07T19:41:12.756Z,90.65
2019-06-07T19:43:38.105Z,90.58
2019-06-07T19:46:22.996Z,90.47
2019-06-07T19:48:56.611Z,90.48
2019-06-07T19:51:40.414Z,91.25
2019-06-07T19:54:20.414Z,90.89
2019-06-07T19:56:55.832Z,89.44
2019-06-07T19:59:29.093Z,90.40
2019-06-07T20:02:10.452Z,90.50
2019-06-07T20:05:07.089Z,90.01
2019-06-07T20:07:35.080Z,90.08
2019-06-07T20:10:14.437Z,90.53
2019-06-07T20:12:51.421Z,89.78
2019-06-07T20:15:30.487Z,90.11
2019-06-07T20:18:13.009Z,89.37
2019-06-07T20:20:52.131Z,89.76
2019-06-07T20:23:27.386Z,89.94
2019-06-07T20:26:08.864Z,90.32
2019-06-07T20:28:49.105Z,90.30
2019-06-07T20:31:27.771Z,90.61
2019-06-07T20:34:04.172Z,90.48
2019-06-07T20:36:34.218Z,91.15
2019-06-07T20:39:17.241Z,89.75
2019-06-07T20:42:11.570Z,90.12
2019-06-07T20:44:31.551Z,90.49
2019-06-07T20:47:08.415Z,90.90
2019-06-07T20:49:44.517Z,90.84
2019-06-07T20:52:43.070Z,91.11
2019-06-07T20:55:18.096Z,91.58
2019-06-07T20:58:07.125Z,91.18
2019-06-07T21:00:40.673Z,90.64
2019-06-07T21:03:26.959Z,91.25
2019-06-07T21:06:05.519Z,91.17
2019-06-07T21:08:37.675Z,91.31
2019-06-07T21:11:11.619Z,92.14
2019-06-07T21:13:42.575Z,91.56
2019-06-07T21:16:14.122Z,91.24
2019-06-07T21:18:46.803Z,90.56
2019-06-07T21:21:18.645Z,90.24
2019-06-07T21:23:51.314Z,89.93
2019-06-07T21:26:22.413Z,90.32
2019-06-07T21:28:53.988Z,90.27
2019-06-07T21:31:25.255Z,89.85
2019-06-07T21:33:56.236Z,90.35
2019-06-07T21:36:26.589Z,90.67
2019-06-07T21:38:56.899Z,91.14
2019-06-07T21:41:28.990Z,90.39
2019-06-07T21:43:59.213Z,89.77
2019-06-07T21:46:29.517Z,89.30
2019-06-07T21:49:02.217Z,88.35
2019-06-07T21:51:33.208Z,88.94
2019-06-07T21:54:10.106Z,88.46
2019-06-07T21:57:06.915Z,88.83
2019-06-07T21:59:17.352Z,88.36
2019-06-07T22:01:47.609Z,88.28
2019-06-07T22:04:18.113Z,88.21
2019-06-07T22:06:48.564Z,87.31
2019-06-07T22:09:19.152Z,87.34
2019-06-07T22:11:49.462Z,86.46
2019-06-07T22:14:20.085Z,87.17
2019-06-07T22:16:51.659Z,86.28
2019-06-07T22:19:23.929Z,86.65
2019-06-07T22:22:02.485Z,87.10
2019-06-07T22:24:26.023Z,86.36
2019-06-07T22:26:56.247Z,86.40
2019-06-07T22:29:26.456Z,86.54
2019-06-07T22:31:56.596Z,87.14
2019-06-07T22:34:26.829Z,86.51
2019-06-07T22:36:57.359Z,86.76
2019-06-07T22:39:27.629Z,86.69
2019-06-07T22:41:59.680Z,86.12
2019-06-07T22:44:34.643Z,86.48
2019-06-07T22:47:09.969Z,86.39
2019-06-07T22:49:39.722Z,86.61
2019-06-07T22:52:13.503Z,86.19
2019-06-07T22:54:43.396Z,85.47
2019-06-07T22:57:21.246Z,85.57
2019-06-07T22:59:51.410Z,85.48
2019-06-07T23:02:22.151Z,85.39
2019-06-07T23:04:52.398Z,85.35
2019-06-07T23:07:23.005Z,85.05
2019-06-07T23:09:53.524Z,85.54
2019-06-07T23:12:25.509Z,85.00
2019-06-07T23:14:55.833Z,83.68
2019-06-07T23:17:26.133Z,83.82
2019-06-07T23:19:56.470Z,83.26
2019-06-07T23:22:26.644Z,83.96
2019-06-07T23:24:56.890Z,83.87
2019-06-07T23:27:27.026Z,84.26
2019-06-07T23:29:57.677Z,84.04
2019-06-07T23:32:27.908Z,83.33
2019-06-07T23:34:58.095Z,83.03
2019-06-07T23:37:31.283Z,82.04
2019-06-07T23:40:01.488Z,81.77
2019-06-07T23:42:31.761Z,82.43
2019-06-07T23:45:05.254Z,82.27
2019-06-07T23:47:35.453Z,82.06
2019-06-07T23:50:06.488Z,83.14
2019-06-07T23:52:38.656Z,83.14
2019-06-07T23:55:09.300Z,84.02
2019-06-07T23:57:39.659Z,83.57
